createdAt,value
2022-10-15T00:02:15.306Z,9.7
2022-10-15T00:05:15.327Z,9.1
2022-10-15T00:08:15.362Z,9.7
2022-10-15T00:11:15.365Z,9.6
2022-10-15T00:14:15.383Z,9.8
2022-10-15T00:17:15.403Z,10.1
2022-10-15T00:20:15.446Z,8.5
2022-10-15T00:23:15.445Z,8.6
2022-10-15T00:26:15.488Z,9.2
2022-10-15T00:29:15.479Z,9.3
2022-10-15T00:32:15.492Z,12.3
2022-10-15T00:35:15.512Z,10
2022-10-15T00:38:15.528Z,10
2022-10-15T00:41:15.731Z,9.7
2022-10-15T00:44:15.568Z,9
2022-10-15T00:47:15.560Z,9.7
2022-10-15T00:50:15.557Z,11.4
2022-10-15T00:53:15.561Z,9.9
2022-10-15T00:56:15.569Z,10.3
2022-10-15T00:59:15.581Z,10.7
2022-10-15T01:02:15.723Z,9.8
2022-10-15T01:05:15.582Z,9.9
2022-10-15T01:08:15.585Z,10.9
2022-10-15T01:11:15.597Z,11.3
2022-10-15T01:14:15.594Z,8.6
2022-10-15T01:17:15.595Z,9.5
2022-10-15T01:20:15.622Z,9.9
2022-10-15T01:23:15.595Z,10.3
2022-10-15T01:26:15.599Z,9.8
2022-10-15T01:29:15.601Z,10.3
2022-10-15T01:32:15.603Z,10.3
2022-10-15T01:35:15.606Z,10.4
2022-10-15T01:38:15.630Z,10.9
2022-10-15T01:41:15.607Z,11.5
2022-10-15T01:44:15.609Z,11.4
2022-10-15T01:47:15.612Z,12.6
2022-10-15T01:50:15.613Z,13.3
2022-10-15T01:53:15.611Z,12.2
2022-10-15T01:56:15.637Z,12.5
2022-10-15T01:59:15.611Z,11.5
2022-10-15T02:02:15.614Z,11.4
2022-10-15T02:05:15.616Z,10.9
2022-10-15T02:08:15.616Z,12.1
2022-10-15T02:11:15.612Z,11.9
2022-10-15T02:14:15.640Z,12.1
2022-10-15T02:17:15.621Z,13.8
2022-10-15T02:20:15.619Z,12.5
2022-10-15T02:23:15.622Z,12.4
2022-10-15T02:26:15.624Z,12.8
2022-10-15T02:32:15.652Z,13.1
2022-10-15T02:35:15.632Z,18.5
2022-10-15T02:38:15.631Z,14
2022-10-15T02:41:15.635Z,13.2
2022-10-15T02:44:15.637Z,14.6
2022-10-15T02:47:15.734Z,14.4
2022-10-15T02:50:15.657Z,14.8
2022-10-15T02:53:15.635Z,15.3
2022-10-15T02:56:15.637Z,16.5
2022-10-15T02:59:15.635Z,14.5
2022-10-15T03:02:16.983Z,16.5
2022-10-15T03:05:15.670Z,15.9
2022-10-15T03:08:15.667Z,16.6
2022-10-15T03:11:15.647Z,16.8
2022-10-15T03:14:15.650Z,18.2
2022-10-15T03:17:15.645Z,17.6
2022-10-15T03:20:15.650Z,18.4
2022-10-15T03:23:15.647Z,19.2
2022-10-15T03:26:15.677Z,18.1
2022-10-15T03:29:15.650Z,20
2022-10-15T03:32:15.651Z,18.1
2022-10-15T03:35:15.655Z,20
2022-10-15T03:38:15.652Z,18.8
2022-10-15T03:41:15.657Z,19.3
2022-10-15T03:44:15.679Z,19.3
2022-10-15T03:47:15.655Z,18.8
2022-10-15T03:50:15.654Z,18.5
2022-10-15T03:53:15.659Z,19.5
2022-10-15T03:56:15.656Z,18.8
2022-10-15T03:59:15.659Z,18.8
2022-10-15T04:02:15.680Z,19.1
2022-10-15T04:05:15.657Z,19
2022-10-15T04:08:15.670Z,21.3
2022-10-15T04:11:15.661Z,25.2
2022-10-15T04:14:15.671Z,24.4
2022-10-15T04:17:15.664Z,27.2
2022-10-15T04:20:15.686Z,28.5
2022-10-15T04:23:15.671Z,27.3
2022-10-15T04:26:15.677Z,31.1
2022-10-15T04:29:15.679Z,38.1
2022-10-15T04:32:15.683Z,38.8
2022-10-15T04:35:15.674Z,40.2
2022-10-15T04:38:15.711Z,36.9
2022-10-15T04:41:15.685Z,39.2
2022-10-15T04:44:15.681Z,38.4
2022-10-15T04:47:15.685Z,41.3
2022-10-15T04:50:15.689Z,40.2
2022-10-15T04:53:15.691Z,41.4
2022-10-15T04:56:15.718Z,43.3
2022-10-15T04:59:15.700Z,44.5
2022-10-15T05:02:15.762Z,43.9
2022-10-15T05:05:15.707Z,44
2022-10-15T05:08:15.706Z,46.9
2022-10-15T05:11:15.699Z,46.3
2022-10-15T05:14:15.732Z,53.8
2022-10-15T05:17:15.706Z,53.9
2022-10-15T05:20:15.711Z,53.9
2022-10-15T05:23:15.708Z,58.1
2022-10-15T05:26:15.710Z,61.2
2022-10-15T05:29:15.715Z,66.9
2022-10-15T05:32:15.818Z,70.2
2022-10-15T05:35:15.723Z,68.7
2022-10-15T05:38:15.727Z,69.9
2022-10-15T05:41:15.721Z,65.6
2022-10-15T05:44:15.727Z,69.7
2022-10-15T05:47:15.724Z,67.4
2022-10-15T05:50:15.764Z,78
2022-10-15T05:53:15.737Z,76.8
2022-10-15T05:56:15.749Z,84.1
2022-10-15T05:59:15.738Z,86.6
2022-10-15T06:02:15.802Z,88.7
2022-10-15T06:05:15.744Z,91.1
2022-10-15T06:08:15.765Z,86.2
2022-10-15T06:11:15.743Z,80.4
2022-10-15T06:14:15.754Z,80.3
2022-10-15T06:17:15.745Z,82.3
2022-10-15T06:20:15.749Z,82.2
2022-10-15T06:23:15.762Z,85.2
2022-10-15T06:26:15.781Z,81.3
2022-10-15T06:29:15.765Z,76
2022-10-15T06:32:15.758Z,69.3
2022-10-15T06:35:15.762Z,69.8
2022-10-15T06:38:15.768Z,65.5
2022-10-15T06:41:15.768Z,68.9
2022-10-15T06:44:15.799Z,65.6
2022-10-15T06:47:15.769Z,59.8
2022-10-15T06:50:15.780Z,55.2
2022-10-15T06:53:15.772Z,63.6
2022-10-15T06:56:15.785Z,65.7
2022-10-15T06:59:15.780Z,64.2
2022-10-15T07:02:15.808Z,59
2022-10-15T07:05:15.784Z,50
2022-10-15T07:08:18.393Z,51.1
2022-10-15T07:11:15.783Z,49.6
2022-10-15T07:14:15.794Z,46.4
2022-10-15T07:17:15.785Z,47.1
2022-10-15T07:20:18.786Z,44.5
2022-10-15T07:23:15.791Z,45.1
2022-10-15T07:26:15.798Z,49.1
2022-10-15T07:29:15.793Z,47.1
2022-10-15T07:32:15.796Z,46.1
2022-10-15T07:35:15.797Z,49.3
2022-10-15T07:38:15.817Z,48.1
2022-10-15T07:41:15.800Z,47.5
2022-10-15T07:44:15.803Z,45.6
2022-10-15T07:47:15.813Z,44.6
2022-10-15T07:50:15.814Z,42.9
2022-10-15T07:53:17.050Z,38.4
2022-10-15T07:56:15.966Z,30.7
2022-10-15T07:59:15.823Z,28
2022-10-15T08:02:15.826Z,25.8
2022-10-15T08:05:15.829Z,26.4
2022-10-15T08:08:15.831Z,31.4
2022-10-15T08:11:15.836Z,36.5
2022-10-15T08:14:15.863Z,37.2
2022-10-15T08:17:15.837Z,36.3
2022-10-15T08:20:15.840Z,37.9
2022-10-15T08:23:15.856Z,39.1
2022-10-15T08:26:15.843Z,36.5
2022-10-15T08:29:15.846Z,37.5
2022-10-15T08:32:15.876Z,38.1
2022-10-15T08:35:15.838Z,35
2022-10-15T08:38:17.468Z,35.7
2022-10-15T08:41:15.860Z,35.1
2022-10-15T08:44:15.861Z,33.4
2022-10-15T08:47:15.867Z,34.7
2022-10-15T08:50:15.891Z,31.6
2022-10-15T08:53:15.869Z,30
2022-10-15T08:56:15.867Z,30.2
2022-10-15T08:59:15.873Z,29.5
2022-10-15T09:02:15.870Z,27.9
2022-10-15T09:05:15.878Z,28.2
2022-10-15T09:08:16.076Z,28.3
2022-10-15T09:11:15.882Z,27
2022-10-15T09:14:15.882Z,26.9
2022-10-15T09:17:15.887Z,25.4
2022-10-15T09:20:15.895Z,26
2022-10-15T09:23:15.890Z,27.1
2022-10-15T09:26:15.920Z,26
2022-10-15T09:29:15.896Z,24.9
2022-10-15T09:32:15.906Z,23
2022-10-15T09:35:15.903Z,23.9
2022-10-15T09:38:15.906Z,22.9
2022-10-15T09:41:15.919Z,21.8
2022-10-15T09:44:18.454Z,23.3
2022-10-15T09:47:15.941Z,20.8
2022-10-15T09:50:15.921Z,21.7
2022-10-15T09:53:15.924Z,23.8
2022-10-15T09:56:15.938Z,24.9
2022-10-15T09:59:15.935Z,23.1
2022-10-15T10:02:16.032Z,20.8
2022-10-15T10:05:15.942Z,24.8
2022-10-15T10:08:15.948Z,22.2
2022-10-15T10:11:15.939Z,20
2022-10-15T10:14:15.954Z,21.7
2022-10-15T10:17:15.959Z,18.8
2022-10-15T10:20:15.984Z,20.5
2022-10-15T10:23:15.964Z,17.7
2022-10-15T10:26:15.966Z,17.6
2022-10-15T10:29:32.797Z,18.6
2022-10-15T10:32:15.971Z,18.1
2022-10-15T10:35:15.972Z,17.5
2022-10-15T10:38:16.000Z,17.3
2022-10-15T10:41:15.979Z,16
2022-10-15T10:44:15.985Z,14.4
2022-10-15T10:47:15.994Z,14.8
2022-10-15T10:50:15.995Z,15.9
2022-10-15T10:53:15.998Z,13.1
2022-10-15T10:56:16.032Z,13.8
2022-10-15T10:59:16.007Z,15
2022-10-15T11:02:16.007Z,14
2022-10-15T11:05:16.009Z,13.3
2022-10-15T11:08:16.022Z,12.2
2022-10-15T11:11:16.018Z,14
2022-10-15T11:14:16.044Z,12.4
2022-10-15T11:17:16.032Z,12
2022-10-15T11:23:16.037Z,12.8
2022-10-15T11:26:16.039Z,12
2022-10-15T11:29:16.045Z,13.6
2022-10-15T11:32:17.011Z,15.5
2022-10-15T11:35:20.194Z,11.8
2022-10-15T11:38:16.051Z,11.4
2022-10-15T11:41:16.059Z,11.8
2022-10-15T11:44:16.064Z,11.6
2022-10-15T11:47:16.070Z,10
2022-10-15T11:50:16.100Z,11.1
2022-10-15T11:53:16.073Z,10.8
2022-10-15T11:56:16.078Z,10.3
2022-10-15T11:59:16.173Z,10.5
2022-10-15T12:02:16.088Z,12
2022-10-15T12:05:16.089Z,10.2
2022-10-15T12:08:16.124Z,11
2022-10-15T12:11:16.101Z,10.7
2022-10-15T12:14:16.105Z,10.6
2022-10-15T12:17:16.128Z,14.5
2022-10-15T12:20:16.112Z,6.7
2022-10-15T12:23:16.124Z,6.1
2022-10-15T12:26:16.151Z,5.6
2022-10-15T12:29:16.121Z,5.4
2022-10-15T12:32:16.129Z,6.8
2022-10-15T12:35:16.234Z,6.8
2022-10-15T12:38:16.135Z,5.2
2022-10-15T12:41:16.141Z,6
2022-10-15T12:44:16.276Z,5.6
2022-10-15T12:47:16.157Z,4.5
2022-10-15T12:50:16.154Z,4.1
2022-10-15T12:53:16.173Z,5
2022-10-15T12:56:16.174Z,5.4
2022-10-15T12:59:16.178Z,5.1
2022-10-15T13:02:16.210Z,3.9
2022-10-15T13:05:16.198Z,4.5
2022-10-15T13:08:16.194Z,4.2
2022-10-15T13:11:16.197Z,2.7
2022-10-15T13:14:16.205Z,3
2022-10-15T13:17:16.207Z,1.9
2022-10-15T13:20:16.239Z,1.9
2022-10-15T13:23:29.934Z,2.8
2022-10-15T13:26:16.227Z,1.9
2022-10-15T13:29:16.231Z,2.1
2022-10-15T13:32:16.244Z,2.3
2022-10-15T13:35:16.245Z,2
2022-10-15T13:38:16.367Z,2.1
2022-10-15T13:41:16.240Z,3.3
2022-10-15T13:44:16.254Z,3.1
2022-10-15T13:47:16.268Z,4.3
2022-10-15T13:50:16.271Z,3.7
2022-10-15T13:53:16.273Z,3.1
2022-10-15T13:56:16.301Z,3.9
2022-10-15T13:59:16.289Z,3.7
2022-10-15T14:02:16.292Z,3.9
2022-10-15T14:05:16.304Z,3.4
2022-10-15T14:08:16.303Z,4.1
2022-10-15T14:11:16.303Z,3.7
2022-10-15T14:14:16.334Z,3.8
2022-10-15T14:17:16.312Z,3.9
2022-10-15T14:20:27.138Z,5.2
2022-10-15T14:23:16.328Z,10.7
2022-10-15T14:26:16.336Z,3.9
2022-10-15T14:29:16.340Z,4.4
2022-10-15T14:32:16.359Z,5.5
2022-10-15T14:35:16.347Z,6.2
2022-10-15T14:38:16.357Z,3.8
2022-10-15T14:41:16.357Z,3.6
2022-10-15T14:44:16.362Z,4.2
2022-10-15T14:47:16.366Z,5.5
2022-10-15T14:50:16.398Z,3.9
2022-10-15T14:53:16.376Z,4.8
2022-10-15T14:56:16.379Z,3.6
2022-10-15T14:59:16.390Z,3.3
2022-10-15T15:02:16.394Z,5.6
2022-10-15T15:05:16.400Z,3.8
2022-10-15T15:08:16.435Z,2.9
2022-10-15T15:11:16.420Z,3.3
2022-10-15T15:14:16.416Z,4.5
2022-10-15T15:17:16.423Z,3.9
2022-10-15T15:20:16.432Z,3.2
2022-10-15T15:23:16.431Z,2.3
2022-10-15T15:26:16.461Z,2.2
2022-10-15T15:29:16.566Z,3.7
2022-10-15T15:32:16.446Z,2
2022-10-15T15:35:16.456Z,2.2
2022-10-15T15:38:16.458Z,2.2
2022-10-15T15:41:16.469Z,1.9
2022-10-15T15:44:16.498Z,2.3
2022-10-15T15:47:16.489Z,2.9
2022-10-15T15:50:16.487Z,1.8
2022-10-15T15:53:16.497Z,2.3
2022-10-15T15:56:16.494Z,2.4
2022-10-15T15:59:16.499Z,1.8
2022-10-15T16:02:16.531Z,1.7
2022-10-15T16:05:16.514Z,2.5
2022-10-15T16:08:16.527Z,1.6
2022-10-15T16:11:16.530Z,2.8
2022-10-15T16:14:16.533Z,2
2022-10-15T16:17:16.537Z,2.5
2022-10-15T16:20:16.562Z,2.6
2022-10-15T16:23:16.555Z,2
2022-10-15T16:26:16.555Z,2.6
2022-10-15T16:29:16.565Z,2.5
2022-10-15T16:32:16.570Z,2.4
2022-10-15T16:35:16.577Z,2.2
2022-10-15T16:38:16.603Z,2.1
2022-10-15T16:41:16.601Z,3.4
2022-10-15T16:44:16.596Z,1.7
2022-10-15T16:47:16.606Z,1.8
2022-10-15T16:50:16.614Z,2
2022-10-15T16:53:16.614Z,1.8
2022-10-15T16:56:16.649Z,2
2022-10-15T16:59:16.630Z,2.2
2022-10-15T17:02:16.637Z,2.3
2022-10-15T17:05:16.638Z,1.3
2022-10-15T17:08:18.759Z,2.4
2022-10-15T17:11:16.659Z,1.3
2022-10-15T17:14:16.689Z,2.3
2022-10-15T17:17:16.671Z,2.5
2022-10-15T17:20:16.683Z,2.3
2022-10-15T17:23:16.685Z,2.6
2022-10-15T17:26:16.692Z,2.9
2022-10-15T17:29:16.698Z,4
2022-10-15T17:32:16.741Z,2.1
2022-10-15T17:35:16.713Z,1.5
2022-10-15T17:38:17.987Z,2
2022-10-15T17:41:16.724Z,2.6
2022-10-15T17:44:16.737Z,1.7
2022-10-15T17:47:16.741Z,1.9
2022-10-15T17:50:16.769Z,2.4
2022-10-15T17:53:16.748Z,1.9
2022-10-15T17:56:16.755Z,3
2022-10-15T17:59:16.779Z,3.3
2022-10-15T18:02:16.793Z,1.5
2022-10-15T18:08:16.816Z,2.2
2022-10-15T18:11:16.796Z,2.8
2022-10-15T18:14:16.839Z,2.4
2022-10-15T18:17:16.815Z,2.1
2022-10-15T18:20:16.829Z,1.7
2022-10-15T18:23:16.832Z,2.4
2022-10-15T18:26:18.636Z,2.2
2022-10-15T18:29:16.851Z,1.8
2022-10-15T18:32:16.859Z,2.3
2022-10-15T18:35:16.869Z,2.6
2022-10-15T18:38:16.879Z,2
2022-10-15T18:41:16.891Z,3.1
2022-10-15T18:44:16.995Z,2.1
2022-10-15T18:47:16.899Z,2.5
2022-10-15T18:50:16.923Z,1.9
2022-10-15T18:53:16.921Z,1.8
2022-10-15T18:56:16.933Z,2.6
2022-10-15T18:59:16.949Z,2.9
2022-10-15T19:02:16.972Z,3.1
2022-10-15T19:05:16.969Z,3.7
2022-10-15T19:08:20.561Z,2.9
2022-10-15T19:11:16.985Z,2.3
2022-10-15T19:14:16.993Z,2.8
2022-10-15T19:17:17.006Z,2.7
2022-10-15T19:20:17.041Z,2.9
2022-10-15T19:23:17.026Z,2.1
2022-10-15T19:26:17.040Z,2.4
2022-10-15T19:29:17.047Z,3.2
2022-10-15T19:32:17.057Z,2.2
2022-10-15T19:35:17.071Z,2.4
2022-10-15T19:38:17.101Z,2.2
2022-10-15T19:41:17.089Z,2
2022-10-15T19:44:17.112Z,1.8
2022-10-15T19:47:17.117Z,3.6
2022-10-15T19:50:17.130Z,1.7
2022-10-15T19:53:17.137Z,2.1
2022-10-15T19:56:17.173Z,1.8
2022-10-15T19:59:17.156Z,2.6
2022-10-15T20:02:17.173Z,2
2022-10-15T20:05:17.175Z,2.1
2022-10-15T20:08:17.191Z,1.8
2022-10-15T20:11:17.191Z,2
2022-10-15T20:14:17.223Z,2.6
2022-10-15T20:17:17.206Z,1.9
2022-10-15T20:20:17.217Z,3.8
2022-10-15T20:23:17.221Z,1.8
2022-10-15T20:26:17.234Z,1.9
2022-10-15T20:29:17.240Z,2.4
2022-10-15T20:32:30.189Z,4
2022-10-15T20:35:17.254Z,2.2
2022-10-15T20:38:17.261Z,2.1
2022-10-15T20:41:17.277Z,2.6
2022-10-15T20:44:17.287Z,2.9
2022-10-15T20:47:17.287Z,2.1
2022-10-15T20:50:17.323Z,2.1
2022-10-15T20:53:17.305Z,2.5
2022-10-15T20:56:17.310Z,3
2022-10-15T20:59:17.323Z,2.3
2022-10-15T21:02:17.356Z,3
2022-10-15T21:05:17.328Z,1.7
2022-10-15T21:08:17.362Z,1.9
2022-10-15T21:11:17.346Z,2.5
2022-10-15T21:14:17.350Z,2
2022-10-15T21:17:17.364Z,1.9
2022-10-15T21:20:17.363Z,2.6
2022-10-15T21:23:17.381Z,2.6
2022-10-15T21:26:17.414Z,1.8
2022-10-15T21:29:17.391Z,2.9
2022-10-15T21:32:17.398Z,2.6
2022-10-15T21:35:17.409Z,3.9
2022-10-15T21:38:17.414Z,2.4
2022-10-15T21:41:17.424Z,1.5
2022-10-15T21:44:17.449Z,2.1
2022-10-15T21:47:17.436Z,1.8
2022-10-15T21:50:17.446Z,2.5
2022-10-15T21:53:17.449Z,2.2
2022-10-15T21:56:17.457Z,3.7
2022-10-15T21:59:17.461Z,2.7
2022-10-15T22:05:17.473Z,2.1
2022-10-15T22:08:17.481Z,2.4
2022-10-15T22:11:17.538Z,2.3
2022-10-15T22:14:17.493Z,2.3
2022-10-15T22:17:17.501Z,4
2022-10-15T22:20:21.433Z,2.2
2022-10-15T22:23:17.509Z,2
2022-10-15T22:26:17.518Z,3
2022-10-15T22:29:17.521Z,3.1
2022-10-15T22:32:17.530Z,3.3
2022-10-15T22:35:17.535Z,2.3
2022-10-15T22:38:17.562Z,2.8
2022-10-15T22:41:17.551Z,3.4
2022-10-15T22:44:17.566Z,2.8
2022-10-15T22:47:17.555Z,3
2022-10-15T22:50:17.561Z,2.8
2022-10-15T22:53:17.565Z,3
2022-10-15T22:56:17.607Z,3.8
2022-10-15T22:59:17.579Z,2.4
2022-10-15T23:02:17.580Z,3.7
2022-10-15T23:05:17.590Z,2.6
2022-10-15T23:08:17.594Z,2.5
2022-10-15T23:11:17.593Z,2.8
2022-10-15T23:14:17.624Z,2.5
2022-10-15T23:17:17.643Z,5.3
2022-10-15T23:20:17.616Z,2.8
2022-10-15T23:23:17.615Z,2.1
2022-10-15T23:26:17.652Z,3.3
2022-10-15T23:29:17.622Z,3.3
2022-10-15T23:32:17.648Z,3.4
2022-10-15T23:35:17.632Z,3
2022-10-15T23:38:17.634Z,2.4
2022-10-15T23:41:17.641Z,2.8
2022-10-15T23:44:17.647Z,4.3
2022-10-15T23:47:17.650Z,2.2
2022-10-15T23:50:17.679Z,3
2022-10-15T23:53:17.656Z,4.7
2022-10-15T23:56:17.661Z,3
2022-10-15T23:59:17.661Z,2.3
